sensor_id;sensor_type;location;lat;lon;timestamp;pressure;altitude;pressure_sealevel;temperature;humidity
16120;BME280;12670;53.502;10.252;2023-09-30T00:02:29;101815.88;;;15.14;100.00
16120;BME280;12670;53.502;10.252;2023-09-30T00:05:32;101819.88;;;15.04;100.00
16120;BME280;12670;53.502;10.252;2023-09-30T00:08:36;101810.19;;;15.02;100.00
16120;BME280;12670;53.502;10.252;2023-09-30T00:11:40;101823.00;;;14.93;100.00
16120;BME280;12670;53.502;10.252;2023-09-30T00:14:43;101820.88;;;15.02;100.00
16120;BME280;12670;53.502;10.252;2023-09-30T00:17:46;101831.69;;;14.99;100.00
16120;BME280;12670;53.502;10.252;2023-09-30T00:20:48;101829.88;;;14.99;100.00
16120;BME280;12670;53.502;10.252;2023-09-30T00:23:52;101841.69;;;14.93;100.00
16120;BME280;12670;53.502;10.252;2023-09-30T00:26:55;101839.09;;;14.72;100.00
16120;BME280;12670;53.502;10.252;2023-09-30T00:29:58;101843.28;;;14.77;100.00
16120;BME280;12670;53.502;10.252;2023-09-30T00:33:01;101841.88;;;14.69;100.00
16120;BME280;12670;53.502;10.252;2023-09-30T00:36:08;101844.03;;;14.81;100.00
16120;BME280;12670;53.502;10.252;2023-09-30T00:39:12;101845.06;;;14.77;100.00
16120;BME280;12670;53.502;10.252;2023-09-30T00:42:15;101852.22;;;14.76;100.00
16120;BME280;12670;53.502;10.252;2023-09-30T00:45:18;101849.09;;;14.87;100.00
16120;BME280;12670;53.502;10.252;2023-09-30T00:48:21;101845.50;;;14.88;100.00
16120;BME280;12670;53.502;10.252;2023-09-30T00:51:24;101854.09;;;14.74;100.00
16120;BME280;12670;53.502;10.252;2023-09-30T00:54:29;101851.06;;;14.83;100.00
16120;BME280;12670;53.502;10.252;2023-09-30T00:57:33;101858.44;;;14.77;100.00
16120;BME280;12670;53.502;10.252;2023-09-30T01:00:37;101858.41;;;14.78;100.00
16120;BME280;12670;53.502;10.252;2023-09-30T01:03:40;101861.34;;;14.71;100.00
16120;BME280;12670;53.502;10.252;2023-09-30T01:06:43;101856.44;;;14.82;100.00
16120;BME280;12670;53.502;10.252;2023-09-30T01:09:47;101858.84;;;14.68;100.00
16120;BME280;12670;53.502;10.252;2023-09-30T01:12:50;101855.47;;;14.62;100.00
16120;BME280;12670;53.502;10.252;2023-09-30T01:15:52;101854.84;;;14.78;100.00
16120;BME280;12670;53.502;10.252;2023-09-30T01:18:55;101849.63;;;14.75;100.00
16120;BME280;12670;53.502;10.252;2023-09-30T01:21:59;101848.69;;;14.76;100.00
16120;BME280;12670;53.502;10.252;2023-09-30T01:25:05;101860.56;;;14.69;100.00
16120;BME280;12670;53.502;10.252;2023-09-30T01:28:08;101842.88;;;14.66;100.00
16120;BME280;12670;53.502;10.252;2023-09-30T01:31:11;101851.50;;;14.73;100.00
16120;BME280;12670;53.502;10.252;2023-09-30T01:34:14;101857.09;;;14.66;100.00
16120;BME280;12670;53.502;10.252;2023-09-30T01:37:18;101872.53;;;14.58;100.00
16120;BME280;12670;53.502;10.252;2023-09-30T01:40:21;101871.25;;;14.69;100.00
16120;BME280;12670;53.502;10.252;2023-09-30T01:43:24;101868.94;;;14.59;100.00
16120;BME280;12670;53.502;10.252;2023-09-30T01:46:27;101863.41;;;14.64;100.00
16120;BME280;12670;53.502;10.252;2023-09-30T01:49:30;101870.75;;;14.59;100.00
16120;BME280;12670;53.502;10.252;2023-09-30T01:52:34;101867.47;;;14.52;100.00
16120;BME280;12670;53.502;10.252;2023-09-30T01:55:37;101870.00;;;14.55;100.00
16120;BME280;12670;53.502;10.252;2023-09-30T01:58:40;101875.66;;;14.48;100.00
16120;BME280;12670;53.502;10.252;2023-09-30T02:01:42;101881.09;;;14.45;100.00
16120;BME280;12670;53.502;10.252;2023-09-30T02:04:47;101883.47;;;14.52;100.00
16120;BME280;12670;53.502;10.252;2023-09-30T02:07:51;101885.13;;;14.33;100.00
16120;BME280;12670;53.502;10.252;2023-09-30T02:10:54;101884.31;;;14.54;100.00
16120;BME280;12670;53.502;10.252;2023-09-30T02:13:56;101882.88;;;14.44;100.00
16120;BME280;12670;53.502;10.252;2023-09-30T02:16:59;101891.41;;;14.30;100.00
16120;BME280;12670;53.502;10.252;2023-09-30T02:20:03;101889.38;;;14.15;100.00
16120;BME280;12670;53.502;10.252;2023-09-30T02:23:10;101892.56;;;14.25;100.00
16120;BME280;12670;53.502;10.252;2023-09-30T02:26:13;101895.78;;;14.33;100.00
16120;BME280;12670;53.502;10.252;2023-09-30T02:29:16;101890.38;;;14.34;100.00
16120;BME280;12670;53.502;10.252;2023-09-30T02:32:19;101895.91;;;14.30;100.00
16120;BME280;12670;53.502;10.252;2023-09-30T02:35:21;101891.72;;;14.23;100.00
16120;BME280;12670;53.502;10.252;2023-09-30T02:38:25;101894.16;;;14.29;100.00
16120;BME280;12670;53.502;10.252;2023-09-30T02:41:28;101894.06;;;14.32;100.00
16120;BME280;12670;53.502;10.252;2023-09-30T02:44:31;101901.59;;;14.21;100.00
16120;BME280;12670;53.502;10.252;2023-09-30T02:47:34;101897.75;;;14.28;100.00
16120;BME280;12670;53.502;10.252;2023-09-30T02:50:37;101894.53;;;14.20;100.00
16120;BME280;12670;53.502;10.252;2023-09-30T02:53:42;101896.03;;;14.27;100.00
16120;BME280;12670;53.502;10.252;2023-09-30T02:56:44;101903.16;;;14.26;100.00
16120;BME280;12670;53.502;10.252;2023-09-30T02:59:47;101894.22;;;14.27;100.00
16120;BME280;12670;53.502;10.252;2023-09-30T03:02:51;101902.09;;;14.08;100.00
16120;BME280;12670;53.502;10.252;2023-09-30T03:05:53;101903.81;;;14.09;100.00
16120;BME280;12670;53.502;10.252;2023-09-30T03:08:58;101900.56;;;14.01;100.00
16120;BME280;12670;53.502;10.252;2023-09-30T03:12:00;101893.22;;;14.08;100.00
16120;BME280;12670;53.502;10.252;2023-09-30T03:15:04;101897.59;;;14.09;100.00
16120;BME280;12670;53.502;10.252;2023-09-30T03:18:08;101914.81;;;14.00;100.00
16120;BME280;12670;53.502;10.252;2023-09-30T03:21:13;101920.16;;;14.00;100.00
16120;BME280;12670;53.502;10.252;2023-09-30T03:24:18;101914.81;;;14.00;100.00
16120;BME280;12670;53.502;10.252;2023-09-30T03:27:21;101925.63;;;13.97;100.00
16120;BME280;12670;53.502;10.252;2023-09-30T03:30:23;101921.00;;;14.02;100.00
16120;BME280;12670;53.502;10.252;2023-09-30T03:33:26;101916.78;;;13.95;100.00
16120;BME280;12670;53.502;10.252;2023-09-30T03:36:29;101911.91;;;14.06;100.00
16120;BME280;12670;53.502;10.252;2023-09-30T03:39:34;101921.47;;;13.88;100.00
16120;BME280;12670;53.502;10.252;2023-09-30T03:42:36;101911.44;;;13.95;100.00
16120;BME280;12670;53.502;10.252;2023-09-30T03:45:40;101904.66;;;13.86;100.00
16120;BME280;12670;53.502;10.252;2023-09-30T03:48:43;101911.97;;;13.81;100.00
16120;BME280;12670;53.502;10.252;2023-09-30T03:51:46;101911.44;;;13.95;100.00
16120;BME280;12670;53.502;10.252;2023-09-30T03:54:53;101911.09;;;13.81;100.00
16120;BME280;12670;53.502;10.252;2023-09-30T03:57:56;101909.31;;;13.81;100.00
16120;BME280;12670;53.502;10.252;2023-09-30T04:00:59;101908.56;;;13.78;100.00
16120;BME280;12670;53.502;10.252;2023-09-30T04:04:02;101906.13;;;13.95;100.00
16120;BME280;12670;53.502;10.252;2023-09-30T04:07:06;101916.75;;;13.97;100.00
16120;BME280;12670;53.502;10.252;2023-09-30T04:10:12;101921.84;;;13.79;100.00
16120;BME280;12670;53.502;10.252;2023-09-30T04:13:16;101920.09;;;13.78;100.00
16120;BME280;12670;53.502;10.252;2023-09-30T04:16:20;101912.13;;;13.77;100.00
16120;BME280;12670;53.502;10.252;2023-09-30T04:19:26;101917.25;;;13.83;100.00
16120;BME280;12670;53.502;10.252;2023-09-30T04:22:31;101919.50;;;13.70;100.00
16120;BME280;12670;53.502;10.252;2023-09-30T04:25:36;101915.00;;;13.72;100.00
16120;BME280;12670;53.502;10.252;2023-09-30T04:28:39;101922.47;;;13.86;100.00
16120;BME280;12670;53.502;10.252;2023-09-30T04:31:42;101933.94;;;13.88;100.00
16120;BME280;12670;53.502;10.252;2023-09-30T04:34:45;101926.41;;;13.76;100.00
16120;BME280;12670;53.502;10.252;2023-09-30T04:37:48;101935.97;;;13.81;100.00
16120;BME280;12670;53.502;10.252;2023-09-30T04:40:52;101928.44;;;13.93;100.00
16120;BME280;12670;53.502;10.252;2023-09-30T04:43:55;101928.28;;;13.97;100.00
16120;BME280;12670;53.502;10.252;2023-09-30T04:46:58;101937.69;;;13.84;100.00
16120;BME280;12670;53.502;10.252;2023-09-30T04:50:02;101934.88;;;13.87;100.00
16120;BME280;12670;53.502;10.252;2023-09-30T04:53:06;101948.16;;;13.88;100.00
16120;BME280;12670;53.502;10.252;2023-09-30T04:56:10;101947.41;;;13.85;100.00
16120;BME280;12670;53.502;10.252;2023-09-30T04:59:13;101953.72;;;13.82;100.00
16120;BME280;12670;53.502;10.252;2023-09-30T05:02:16;101957.63;;;13.97;100.00
16120;BME280;12670;53.502;10.252;2023-09-30T05:05:19;101954.97;;;13.97;100.00
16120;BME280;12670;53.502;10.252;2023-09-30T05:08:22;101942.44;;;13.99;100.00
16120;BME280;12670;53.502;10.252;2023-09-30T05:11:26;101936.22;;;13.99;100.00
16120;BME280;12670;53.502;10.252;2023-09-30T05:14:29;101938.84;;;14.00;100.00
16120;BME280;12670;53.502;10.252;2023-09-30T05:17:32;101955.72;;;14.01;100.00
16120;BME280;12670;53.502;10.252;2023-09-30T05:20:35;101951.44;;;13.97;100.00
16120;BME280;12670;53.502;10.252;2023-09-30T05:23:40;101955.91;;;13.96;100.00
16120;BME280;12670;53.502;10.252;2023-09-30T05:26:44;101948.59;;;14.01;100.00
16120;BME280;12670;53.502;10.252;2023-09-30T05:29:46;101949.28;;;14.06;100.00
16120;BME280;12670;53.502;10.252;2023-09-30T05:32:51;101953.19;;;13.98;100.00
16120;BME280;12670;53.502;10.252;2023-09-30T05:35:54;101959.38;;;13.98;100.00
16120;BME280;12670;53.502;10.252;2023-09-30T05:38:57;101957.63;;;13.97;100.00
16120;BME280;12670;53.502;10.252;2023-09-30T05:42:01;101957.41;;;14.03;100.00
16120;BME280;12670;53.502;10.252;2023-09-30T05:45:05;101971.22;;;13.91;100.00
16120;BME280;12670;53.502;10.252;2023-09-30T05:48:07;101977.25;;;13.96;100.00
16120;BME280;12670;53.502;10.252;2023-09-30T05:51:10;101984.09;;;14.03;100.00
16120;BME280;12670;53.502;10.252;2023-09-30T05:54:16;101983.31;;;14.00;100.00
16120;BME280;12670;53.502;10.252;2023-09-30T05:57:20;101985.75;;;14.07;100.00
16120;BME280;12670;53.502;10.252;2023-09-30T06:00:24;101987.56;;;14.05;100.00
16120;BME280;12670;53.502;10.252;2023-09-30T06:03:31;101981.91;;;14.14;100.00
16120;BME280;12670;53.502;10.252;2023-09-30T06:06:34;101986.84;;;14.02;100.00
16120;BME280;12670;53.502;10.252;2023-09-30T06:09:38;101992.03;;;14.05;100.00
16120;BME280;12670;53.502;10.252;2023-09-30T06:12:42;102002.84;;;14.02;100.00
16120;BME280;12670;53.502;10.252;2023-09-30T06:15:45;102009.13;;;13.99;100.00
16120;BME280;12670;53.502;10.252;2023-09-30T06:18:48;102006.97;;;14.10;100.00
16120;BME280;12670;53.502;10.252;2023-09-30T06:21:51;102014.03;;;14.11;100.00
16120;BME280;12670;53.502;10.252;2023-09-30T06:24:54;102026.78;;;14.03;100.00
16120;BME280;12670;53.502;10.252;2023-09-30T06:27:58;102021.81;;;14.18;100.00
16120;BME280;12670;53.502;10.252;2023-09-30T06:31:01;102019.16;;;14.18;100.00
16120;BME280;12670;53.502;10.252;2023-09-30T06:34:04;102024.41;;;14.21;100.00
16120;BME280;12670;53.502;10.252;2023-09-30T06:37:08;102024.84;;;14.08;100.00
16120;BME280;12670;53.502;10.252;2023-09-30T06:40:11;102036.53;;;14.04;100.00
16120;BME280;12670;53.502;10.252;2023-09-30T06:43:16;102041.44;;;14.17;100.00
16120;BME280;12670;53.502;10.252;2023-09-30T06:46:19;102049.50;;;14.15;100.00
16120;BME280;12670;53.502;10.252;2023-09-30T06:49:21;102040.97;;;14.29;100.00
16120;BME280;12670;53.502;10.252;2023-09-30T06:52:25;102048.91;;;14.32;100.00
16120;BME280;12670;53.502;10.252;2023-09-30T06:55:29;102054.28;;;14.30;100.00
16120;BME280;12670;53.502;10.252;2023-09-30T06:58:34;102052.16;;;14.40;100.00
16120;BME280;12670;53.502;10.252;2023-09-30T07:01:37;102054.25;;;14.32;100.00
16120;BME280;12670;53.502;10.252;2023-09-30T07:04:40;102054.34;;;14.29;100.00
16120;BME280;12670;53.502;10.252;2023-09-30T07:07:43;102065.22;;;14.23;100.00
16120;BME280;12670;53.502;10.252;2023-09-30T07:10:45;102060.94;;;14.44;100.00
16120;BME280;12670;53.502;10.252;2023-09-30T07:13:51;102063.81;;;14.62;100.00
16120;BME280;12670;53.502;10.252;2023-09-30T07:16:54;102054.22;;;14.57;100.00
16120;BME280;12670;53.502;10.252;2023-09-30T07:19:57;102071.19;;;14.79;100.00
16120;BME280;12670;53.502;10.252;2023-09-30T07:23:01;102081.00;;;14.79;100.00
16120;BME280;12670;53.502;10.252;2023-09-30T07:26:23;102073.63;;;14.85;100.00
16120;BME280;12670;53.502;10.252;2023-09-30T07:29:28;102077.47;;;14.78;100.00
16120;BME280;12670;53.502;10.252;2023-09-30T07:32:30;102080.63;;;14.88;100.00
16120;BME280;12670;53.502;10.252;2023-09-30T07:35:33;102096.44;;;14.94;100.00
16120;BME280;12670;53.502;10.252;2023-09-30T07:38:36;102082.75;;;14.80;100.00
16120;BME280;12670;53.502;10.252;2023-09-30T07:41:39;102089.50;;;14.90;100.00
16120;BME280;12670;53.502;10.252;2023-09-30T07:44:43;102097.59;;;15.10;100.00
16120;BME280;12670;53.502;10.252;2023-09-30T07:47:46;102092.38;;;15.07;100.00
16120;BME280;12670;53.502;10.252;2023-09-30T07:50:49;102093.13;;;15.33;100.00
16120;BME280;12670;53.502;10.252;2023-09-30T07:53:52;102084.94;;;15.37;100.00
16120;BME280;12670;53.502;10.252;2023-09-30T07:56:54;102087.59;;;15.59;100.00
16120;BME280;12670;53.502;10.252;2023-09-30T07:59:59;102091.81;;;15.66;100.00
16120;BME280;12670;53.502;10.252;2023-09-30T08:03:02;102096.31;;;15.64;100.00
16120;BME280;12670;53.502;10.252;2023-09-30T08:06:07;102099.13;;;15.83;100.00
16120;BME280;12670;53.502;10.252;2023-09-30T08:09:12;102095.69;;;15.80;100.00
16120;BME280;12670;53.502;10.252;2023-09-30T08:12:15;102110.56;;;15.87;100.00
16120;BME280;12670;53.502;10.252;2023-09-30T08:15:19;102101.47;;;15.91;100.00
16120;BME280;12670;53.502;10.252;2023-09-30T08:18:22;102103.47;;;15.86;100.00
16120;BME280;12670;53.502;10.252;2023-09-30T08:21:24;102102.94;;;15.98;100.00
16120;BME280;12670;53.502;10.252;2023-09-30T08:24:28;102107.91;;;16.07;100.00
16120;BME280;12670;53.502;10.252;2023-09-30T08:27:31;102110.78;;;16.03;100.00
16120;BME280;12670;53.502;10.252;2023-09-30T08:30:35;102123.97;;;16.27;100.00
16120;BME280;12670;53.502;10.252;2023-09-30T08:33:38;102138.63;;;16.39;100.00
16120;BME280;12670;53.502;10.252;2023-09-30T08:36:42;102133.09;;;16.44;100.00
16120;BME280;12670;53.502;10.252;2023-09-30T08:39:45;102125.09;;;16.63;100.00
16120;BME280;12670;53.502;10.252;2023-09-30T08:42:51;102116.19;;;16.62;100.00
16120;BME280;12670;53.502;10.252;2023-09-30T08:45:55;102126.63;;;16.68;100.00
16120;BME280;12670;53.502;10.252;2023-09-30T08:49:00;102117.94;;;16.84;100.00
16120;BME280;12670;53.502;10.252;2023-09-30T08:52:04;102117.47;;;16.93;100.00
16120;BME280;12670;53.502;10.252;2023-09-30T08:55:08;102120.34;;;17.09;100.00
16120;BME280;12670;53.502;10.252;2023-09-30T08:58:12;102123.38;;;17.01;100.00
16120;BME280;12670;53.502;10.252;2023-09-30T09:01:16;102126.94;;;17.20;100.00
16120;BME280;12670;53.502;10.252;2023-09-30T09:04:19;102134.81;;;17.04;100.00
16120;BME280;12670;53.502;10.252;2023-09-30T09:07:22;102128.28;;;17.10;100.00
16120;BME280;12670;53.502;10.252;2023-09-30T09:10:25;102137.44;;;17.25;100.00
16120;BME280;12670;53.502;10.252;2023-09-30T09:13:28;102136.63;;;17.23;100.00
16120;BME280;12670;53.502;10.252;2023-09-30T09:16:32;102133.44;;;17.33;100.00
16120;BME280;12670;53.502;10.252;2023-09-30T09:19:35;102137.13;;;17.50;100.00
16120;BME280;12670;53.502;10.252;2023-09-30T09:22:38;102138.38;;;17.43;100.00
16120;BME280;12670;53.502;10.252;2023-09-30T09:25:41;102142.03;;;17.78;100.00
16120;BME280;12670;53.502;10.252;2023-09-30T09:28:45;102147.91;;;17.67;100.00
16120;BME280;12670;53.502;10.252;2023-09-30T09:31:51;102147.50;;;17.94;100.00
16120;BME280;12670;53.502;10.252;2023-09-30T09:35:00;102140.09;;;17.99;100.00
16120;BME280;12670;53.502;10.252;2023-09-30T09:38:04;102133.53;;;18.04;100.00
16120;BME280;12670;53.502;10.252;2023-09-30T09:41:07;102140.91;;;18.18;100.00
16120;BME280;12670;53.502;10.252;2023-09-30T09:44:10;102138.34;;;17.98;100.00
16120;BME280;12670;53.502;10.252;2023-09-30T09:47:14;102142.47;;;18.22;100.00
16120;BME280;12670;53.502;10.252;2023-09-30T09:50:19;102142.00;;;18.31;100.00
16120;BME280;12670;53.502;10.252;2023-09-30T09:53:23;102140.09;;;18.33;100.00
16120;BME280;12670;53.502;10.252;2023-09-30T09:56:27;102137.41;;;18.33;100.00
16120;BME280;12670;53.502;10.252;2023-09-30T09:59:29;102135.41;;;18.54;100.00
16120;BME280;12670;53.502;10.252;2023-09-30T10:02:36;102134.25;;;18.43;100.00
16120;BME280;12670;53.502;10.252;2023-09-30T10:05:39;102127.25;;;18.56;100.00
16120;BME280;12670;53.502;10.252;2023-09-30T10:08:45;102126.44;;;18.88;100.00
16120;BME280;12670;53.502;10.252;2023-09-30T10:11:49;102120.19;;;19.04;100.00
16120;BME280;12670;53.502;10.252;2023-09-30T10:14:52;102124.56;;;19.38;100.00
16120;BME280;12670;53.502;10.252;2023-09-30T10:18:00;102122.53;;;19.57;100.00
16120;BME280;12670;53.502;10.252;2023-09-30T10:21:07;102127.53;;;19.65;100.00
16120;BME280;12670;53.502;10.252;2023-09-30T10:24:29;102119.84;;;19.57;100.00
16120;BME280;12670;53.502;10.252;2023-09-30T10:27:35;102134.72;;;19.49;100.00
16120;BME280;12670;53.502;10.252;2023-09-30T10:31:07;102130.63;;;19.89;100.00
16120;BME280;12670;53.502;10.252;2023-09-30T10:34:22;102135.16;;;20.77;98.67
16120;BME280;12670;53.502;10.252;2023-09-30T10:37:25;102138.31;;;20.55;94.72
16120;BME280;12670;53.502;10.252;2023-09-30T10:40:28;102141.81;;;21.00;90.20
16120;BME280;12670;53.502;10.252;2023-09-30T10:43:32;102140.38;;;21.50;86.87
16120;BME280;12670;53.502;10.252;2023-09-30T10:46:36;102145.38;;;21.29;86.79
16120;BME280;12670;53.502;10.252;2023-09-30T10:49:40;102160.06;;;21.79;85.71
16120;BME280;12670;53.502;10.252;2023-09-30T10:52:43;102147.06;;;21.16;88.56
16120;BME280;12670;53.502;10.252;2023-09-30T10:55:50;102149.63;;;21.60;86.64
16120;BME280;12670;53.502;10.252;2023-09-30T10:58:56;102156.75;;;21.88;82.47
16120;BME280;12670;53.502;10.252;2023-09-30T11:01:59;102146.13;;;21.31;84.95
16120;BME280;12670;53.502;10.252;2023-09-30T11:05:09;102142.66;;;20.72;84.76
16120;BME280;12670;53.502;10.252;2023-09-30T11:08:15;102138.66;;;20.35;92.01
16120;BME280;12670;53.502;10.252;2023-09-30T11:11:19;102145.72;;;21.37;88.79
16120;BME280;12670;53.502;10.252;2023-09-30T11:14:23;102137.63;;;21.09;86.28
16120;BME280;12670;53.502;10.252;2023-09-30T11:17:30;102145.84;;;20.93;83.66
16120;BME280;12670;53.502;10.252;2023-09-30T11:20:34;102139.97;;;20.86;84.50
16120;BME280;12670;53.502;10.252;2023-09-30T11:23:37;102146.13;;;21.17;81.05
16120;BME280;12670;53.502;10.252;2023-09-30T11:26:40;102141.22;;;22.04;77.72
16120;BME280;12670;53.502;10.252;2023-09-30T11:29:48;102133.09;;;22.44;75.51
16120;BME280;12670;53.502;10.252;2023-09-30T11:32:58;102122.28;;;23.08;74.08
16120;BME280;12670;53.502;10.252;2023-09-30T11:36:04;102125.47;;;23.26;68.74
16120;BME280;12670;53.502;10.252;2023-09-30T11:39:08;102124.56;;;22.63;69.44
16120;BME280;12670;53.502;10.252;2023-09-30T11:42:15;102131.25;;;22.32;70.53
16120;BME280;12670;53.502;10.252;2023-09-30T11:45:19;102132.78;;;22.61;69.62
16120;BME280;12670;53.502;10.252;2023-09-30T11:48:24;102128.88;;;23.17;64.37
16120;BME280;12670;53.502;10.252;2023-09-30T11:51:29;102131.59;;;23.17;64.29
16120;BME280;12670;53.502;10.252;2023-09-30T11:54:34;102117.34;;;23.62;65.64
16120;BME280;12670;53.502;10.252;2023-09-30T11:57:39;102127.31;;;23.86;61.08
16120;BME280;12670;53.502;10.252;2023-09-30T12:00:41;102123.97;;;23.22;61.20
16120;BME280;12670;53.502;10.252;2023-09-30T12:03:44;102124.69;;;22.61;64.37
16120;BME280;12670;53.502;10.252;2023-09-30T12:06:50;102126.06;;;21.89;68.20
16120;BME280;12670;53.502;10.252;2023-09-30T12:09:53;102124.41;;;21.47;71.56
16120;BME280;12670;53.502;10.252;2023-09-30T12:12:56;102118.69;;;21.78;73.08
16120;BME280;12670;53.502;10.252;2023-09-30T12:15:59;102113.53;;;21.88;77.15
16120;BME280;12670;53.502;10.252;2023-09-30T12:19:01;102104.34;;;22.18;83.97
16120;BME280;12670;53.502;10.252;2023-09-30T12:22:06;102106.81;;;22.33;70.46
16120;BME280;12670;53.502;10.252;2023-09-30T12:25:08;102105.41;;;22.92;66.78
16120;BME280;12670;53.502;10.252;2023-09-30T12:28:11;102103.44;;;23.06;60.12
16120;BME280;12670;53.502;10.252;2023-09-30T12:31:15;102111.69;;;22.54;61.52
16120;BME280;12670;53.502;10.252;2023-09-30T12:34:19;102116.53;;;21.83;66.91
16120;BME280;12670;53.502;10.252;2023-09-30T12:37:23;102112.53;;;21.49;66.23
16120;BME280;12670;53.502;10.252;2023-09-30T12:40:25;102116.50;;;21.71;65.17
16120;BME280;12670;53.502;10.252;2023-09-30T12:43:29;102111.47;;;22.44;66.94
16120;BME280;12670;53.502;10.252;2023-09-30T12:46:32;102111.13;;;23.12;60.32
16120;BME280;12670;53.502;10.252;2023-09-30T12:49:36;102106.72;;;23.59;60.35
16120;BME280;12670;53.502;10.252;2023-09-30T12:52:40;102108.44;;;24.08;59.63
16120;BME280;12670;53.502;10.252;2023-09-30T12:55:43;102113.81;;;23.97;55.83
16120;BME280;12670;53.502;10.252;2023-09-30T12:58:45;102098.50;;;24.31;56.86
16120;BME280;12670;53.502;10.252;2023-09-30T13:01:50;102092.81;;;24.12;55.57
16120;BME280;12670;53.502;10.252;2023-09-30T13:04:53;102096.91;;;24.29;56.80
16120;BME280;12670;53.502;10.252;2023-09-30T13:07:57;102098.50;;;24.31;57.76
16120;BME280;12670;53.502;10.252;2023-09-30T13:11:00;102096.66;;;24.32;55.61
16120;BME280;12670;53.502;10.252;2023-09-30T13:14:03;102093.28;;;24.52;54.56
16120;BME280;12670;53.502;10.252;2023-09-30T13:17:06;102098.53;;;23.96;53.40
16120;BME280;12670;53.502;10.252;2023-09-30T13:20:11;102086.38;;;24.13;57.88
16120;BME280;12670;53.502;10.252;2023-09-30T13:23:15;102087.22;;;24.37;59.63
16120;BME280;12670;53.502;10.252;2023-09-30T13:26:21;102084.56;;;24.25;61.40
16120;BME280;12670;53.502;10.252;2023-09-30T13:29:24;102076.31;;;24.26;57.67
16120;BME280;12670;53.502;10.252;2023-09-30T13:32:27;102088.91;;;23.92;56.45
16120;BME280;12670;53.502;10.252;2023-09-30T13:35:29;102079.16;;;23.18;58.35
16120;BME280;12670;53.502;10.252;2023-09-30T13:38:34;102085.09;;;22.48;60.50
16120;BME280;12670;53.502;10.252;2023-09-30T13:41:36;102086.41;;;22.02;61.90
16120;BME280;12670;53.502;10.252;2023-09-30T13:44:39;102075.53;;;21.37;66.54
16120;BME280;12670;53.502;10.252;2023-09-30T13:47:42;102086.53;;;21.20;66.30
16120;BME280;12670;53.502;10.252;2023-09-30T13:50:45;102072.72;;;21.39;71.90
16120;BME280;12670;53.502;10.252;2023-09-30T13:53:49;102080.75;;;21.40;71.81
16120;BME280;12670;53.502;10.252;2023-09-30T13:56:51;102084.03;;;21.31;68.30
16120;BME280;12670;53.502;10.252;2023-09-30T13:59:54;102077.06;;;21.41;70.85
16120;BME280;12670;53.502;10.252;2023-09-30T14:02:59;102083.63;;;21.37;68.71
16120;BME280;12670;53.502;10.252;2023-09-30T14:06:02;102095.22;;;21.25;69.61
16120;BME280;12670;53.502;10.252;2023-09-30T14:09:13;102080.38;;;21.32;67.85
16120;BME280;12670;53.502;10.252;2023-09-30T14:12:35;102076.91;;;21.30;69.57
16120;BME280;12670;53.502;10.252;2023-09-30T14:15:38;102086.19;;;21.12;67.87
16120;BME280;12670;53.502;10.252;2023-09-30T14:18:41;102075.78;;;21.06;70.24
16120;BME280;12670;53.502;10.252;2023-09-30T14:21:44;102080.78;;;20.97;74.02
16120;BME280;12670;53.502;10.252;2023-09-30T14:24:48;102080.69;;;20.99;74.56
16120;BME280;12670;53.502;10.252;2023-09-30T14:27:51;102085.63;;;20.92;70.03
16120;BME280;12670;53.502;10.252;2023-09-30T14:30:54;102075.22;;;20.86;73.24
16120;BME280;12670;53.502;10.252;2023-09-30T14:33:57;102067.25;;;20.56;73.51
16120;BME280;12670;53.502;10.252;2023-09-30T14:37:00;102073.97;;;20.35;74.37
16120;BME280;12670;53.502;10.252;2023-09-30T14:40:05;102070.03;;;20.55;78.25
16120;BME280;12670;53.502;10.252;2023-09-30T14:43:12;102068.63;;;20.33;74.70
16120;BME280;12670;53.502;10.252;2023-09-30T14:46:14;102074.41;;;20.13;74.30
16120;BME280;12670;53.502;10.252;2023-09-30T14:49:17;102069.78;;;20.15;75.41
16120;BME280;12670;53.502;10.252;2023-09-30T14:52:20;102065.53;;;20.11;76.47
16120;BME280;12670;53.502;10.252;2023-09-30T14:55:24;102066.84;;;19.89;76.07
16120;BME280;12670;53.502;10.252;2023-09-30T14:58:27;102061.56;;;19.88;77.47
16120;BME280;12670;53.502;10.252;2023-09-30T15:01:30;102060.16;;;19.81;78.54
16120;BME280;12670;53.502;10.252;2023-09-30T15:04:33;102054.13;;;19.91;82.16
16120;BME280;12670;53.502;10.252;2023-09-30T15:07:37;102056.72;;;19.93;82.04
16120;BME280;12670;53.502;10.252;2023-09-30T15:10:41;102055.56;;;19.83;81.18
16120;BME280;12670;53.502;10.252;2023-09-30T15:13:45;102071.78;;;19.81;79.42
16120;BME280;12670;53.502;10.252;2023-09-30T15:16:48;102069.75;;;20.01;81.44
16120;BME280;12670;53.502;10.252;2023-09-30T15:19:51;102066.75;;;19.91;82.61
16120;BME280;12670;53.502;10.252;2023-09-30T15:22:54;102058.34;;;19.81;83.81
16120;BME280;12670;53.502;10.252;2023-09-30T15:25:58;102064.25;;;19.88;83.42
16120;BME280;12670;53.502;10.252;2023-09-30T15:29:01;102061.81;;;19.83;83.76
16120;BME280;12670;53.502;10.252;2023-09-30T15:32:04;102061.16;;;19.64;83.64
16120;BME280;12670;53.502;10.252;2023-09-30T15:35:08;102057.34;;;19.68;85.47
16120;BME280;12670;53.502;10.252;2023-09-30T15:38:10;102055.00;;;19.62;85.54
16120;BME280;12670;53.502;10.252;2023-09-30T15:41:15;102055.97;;;19.61;89.20